createdAt,value
2022-08-17T00:00:43.570Z,24.40
2022-08-17T00:01:52.771Z,24.50
2022-08-17T00:03:13.634Z,24.40
2022-08-17T00:04:20.088Z,24.40
2022-08-17T00:05:21.965Z,24.40
2022-08-17T00:06:29.664Z,24.40
2022-08-17T00:07:31.594Z,24.40
2022-08-17T00:08:36.794Z,24.40
2022-08-17T00:09:38.956Z,24.30
2022-08-17T00:10:41.618Z,24.30
2022-08-17T00:12:40.385Z,24.30
2022-08-17T00:13:11.442Z,24.30
2022-08-17T00:14:18.673Z,24.20
2022-08-17T00:15:22.412Z,24.20
2022-08-17T00:16:56.224Z,24.30
2022-08-17T00:17:55.953Z,24.20
2022-08-17T00:19:08.238Z,24.20
2022-08-17T00:20:12.172Z,24.20
2022-08-17T00:21:16.148Z,24.20
2022-08-17T00:22:34.704Z,24.20
2022-08-17T00:23:38.765Z,24.20
2022-08-17T00:24:46.157Z,24.20
2022-08-17T00:25:48.720Z,24.20
2022-08-17T00:26:50.381Z,24.20
2022-08-17T00:27:53.059Z,24.20
2022-08-17T00:28:56.273Z,24.10
2022-08-17T00:29:59.289Z,24.10
2022-08-17T00:31:01.805Z,24.10
2022-08-17T00:33:23.147Z,24.10
2022-08-17T00:33:30.559Z,24.10
2022-08-17T00:34:32.601Z,24.10
2022-08-17T00:35:35.451Z,24.10
2022-08-17T00:36:37.358Z,24.10
2022-08-17T00:37:39.464Z,24.00
2022-08-17T00:38:42.149Z,24.00
2022-08-17T00:39:46.337Z,24.00
2022-08-17T00:40:55.915Z,24.00
2022-08-17T00:42:01.045Z,24.00
2022-08-17T00:43:26.447Z,24.00
2022-08-17T00:44:30.284Z,24.00
2022-08-17T00:45:32.931Z,23.90
2022-08-17T00:46:39.204Z,23.90
2022-08-17T00:47:41.680Z,23.90
2022-08-17T00:48:44.231Z,23.90
2022-08-17T00:49:46.035Z,23.90
2022-08-17T00:51:19.907Z,23.80
2022-08-17T00:52:24.947Z,23.80
2022-08-17T00:53:29.855Z,23.80
2022-08-17T00:54:41.788Z,23.80
2022-08-17T00:55:45.309Z,23.70
2022-08-17T00:56:51.201Z,23.70
2022-08-17T00:57:58.557Z,23.80
2022-08-17T00:59:02.478Z,23.70
2022-08-17T01:00:10.924Z,23.70
2022-08-17T01:01:21.513Z,23.70
2022-08-17T01:02:26.777Z,23.70
2022-08-17T01:03:29.684Z,23.70
2022-08-17T01:04:32.826Z,23.70
2022-08-17T01:05:38.384Z,23.60
2022-08-17T01:06:49.509Z,23.70
2022-08-17T01:07:53.553Z,23.70
2022-08-17T01:08:58.030Z,23.60
2022-08-17T01:10:03.912Z,23.60
2022-08-17T01:11:07.326Z,23.60
2022-08-17T01:12:10.317Z,23.60
2022-08-17T01:13:12.901Z,23.60
2022-08-17T01:14:14.657Z,23.60
2022-08-17T01:15:16.814Z,23.60
2022-08-17T01:16:23.066Z,23.60
2022-08-17T01:17:24.777Z,23.60
2022-08-17T01:18:27.404Z,23.60
2022-08-17T01:19:35.834Z,23.60
2022-08-17T01:20:48.626Z,23.50
2022-08-17T01:22:00.823Z,23.50
2022-08-17T01:23:02.499Z,23.50
2022-08-17T01:24:04.575Z,23.50
2022-08-17T01:25:08.559Z,23.50
2022-08-17T01:26:10.334Z,23.40
2022-08-17T01:27:14.134Z,23.40
2022-08-17T01:28:52.688Z,23.50
2022-08-17T01:31:59.569Z,23.40
2022-08-17T01:33:01.239Z,23.40
2022-08-17T01:34:10.630Z,23.30
2022-08-17T01:35:12.495Z,23.30
2022-08-17T01:36:14.557Z,23.30
2022-08-17T01:37:17.768Z,23.30
2022-08-17T01:38:19.710Z,23.30
2022-08-17T01:39:31.705Z,23.30
2022-08-17T01:40:37.677Z,23.30
2022-08-17T01:41:41.021Z,23.30
2022-08-17T01:42:51.927Z,23.30
2022-08-17T01:44:04.102Z,23.30
2022-08-17T01:45:20.760Z,23.30
2022-08-17T01:46:29.092Z,23.30
2022-08-17T01:47:31.114Z,23.30
2022-08-17T01:48:36.352Z,23.20
2022-08-17T01:49:38.436Z,23.20
2022-08-17T01:50:42.802Z,23.20
2022-08-17T01:51:44.562Z,23.20
2022-08-17T01:52:49.356Z,23.20
2022-08-17T01:53:55.436Z,23.20
2022-08-17T01:54:57.325Z,23.30
2022-08-17T01:56:05.250Z,23.20
2022-08-17T01:57:07.551Z,23.20
2022-08-17T01:58:09.872Z,23.20
2022-08-17T01:59:12.872Z,23.20
2022-08-17T02:00:14.989Z,23.20
2022-08-17T02:01:22.932Z,23.10
2022-08-17T02:02:30.447Z,23.10
2022-08-17T02:03:36.394Z,23.10
2022-08-17T02:04:38.076Z,23.20
2022-08-17T02:05:40.441Z,23.20
2022-08-17T02:06:54.163Z,23.10
2022-08-17T02:07:59.521Z,23.20
2022-08-17T02:09:03.794Z,23.10
2022-08-17T02:10:19.828Z,23.10
2022-08-17T02:11:22.467Z,23.10
2022-08-17T02:12:38.814Z,23.00
2022-08-17T02:13:41.990Z,23.00
2022-08-17T02:14:44.062Z,23.00
2022-08-17T02:15:46.552Z,23.00
2022-08-17T02:16:48.296Z,23.00
2022-08-17T02:17:50.029Z,23.00
2022-08-17T02:18:56.546Z,23.00
2022-08-17T02:19:58.223Z,23.00
2022-08-17T02:21:00.270Z,23.00
2022-08-17T02:22:01.928Z,23.00
2022-08-17T02:23:04.663Z,23.00
2022-08-17T02:24:15.000Z,23.00
2022-08-17T02:25:19.212Z,23.00
2022-08-17T02:26:24.059Z,23.00
2022-08-17T02:27:28.410Z,23.00
2022-08-17T02:28:30.711Z,23.00
2022-08-17T02:29:32.528Z,23.00
2022-08-17T02:31:01.301Z,23.00
2022-08-17T02:31:58.645Z,23.00
2022-08-17T02:33:00.729Z,23.00
2022-08-17T02:34:06.264Z,23.00
2022-08-17T02:35:08.955Z,23.00
2022-08-17T02:36:12.701Z,23.00
2022-08-17T02:37:17.307Z,22.90
2022-08-17T02:38:18.998Z,22.90
2022-08-17T02:39:20.781Z,22.90
2022-08-17T02:40:35.794Z,22.90
2022-08-17T02:41:39.330Z,22.90
2022-08-17T02:42:44.309Z,22.90
2022-08-17T02:43:45.963Z,22.90
2022-08-17T02:44:47.972Z,22.90
2022-08-17T02:45:49.672Z,22.90
2022-08-17T02:46:53.070Z,22.90
2022-08-17T02:47:54.967Z,22.90
2022-08-17T02:48:57.014Z,22.90
2022-08-17T02:49:58.691Z,22.90
2022-08-17T02:51:01.175Z,22.90
2022-08-17T02:52:04.899Z,22.90
2022-08-17T02:53:06.749Z,22.80
2022-08-17T02:54:41.368Z,22.90
2022-08-17T02:55:34.358Z,22.80
2022-08-17T02:56:36.055Z,22.80
2022-08-17T02:57:37.975Z,22.90
2022-08-17T02:58:39.645Z,22.90
2022-08-17T02:59:48.341Z,22.90
2022-08-17T03:00:50.672Z,22.90
2022-08-17T03:01:52.430Z,22.80
2022-08-17T03:03:19.260Z,22.80
2022-08-17T03:04:22.681Z,22.90
2022-08-17T03:05:27.415Z,22.90
2022-08-17T03:06:29.633Z,22.90
2022-08-17T03:07:31.768Z,22.90
2022-08-17T03:08:34.029Z,22.90
2022-08-17T03:09:35.689Z,22.90
2022-08-17T03:10:37.337Z,22.90
2022-08-17T03:11:39.091Z,22.90
2022-08-17T03:12:42.218Z,22.90
2022-08-17T03:13:43.963Z,22.90
2022-08-17T03:14:46.062Z,22.90
2022-08-17T03:15:48.722Z,22.90
2022-08-17T03:16:50.390Z,22.90
2022-08-17T03:17:53.408Z,22.90
2022-08-17T03:18:55.158Z,22.90
2022-08-17T03:19:57.056Z,22.90
2022-08-17T03:21:00.998Z,22.90
2022-08-17T03:22:35.583Z,22.90
2022-08-17T03:23:29.644Z,22.90
2022-08-17T03:24:32.042Z,22.90
2022-08-17T03:25:37.377Z,22.80
2022-08-17T03:26:40.473Z,22.80
2022-08-17T03:27:42.357Z,22.80
2022-08-17T03:28:49.923Z,22.80
2022-08-17T03:29:51.586Z,22.80
2022-08-17T03:30:53.370Z,22.80
2022-08-17T03:31:55.010Z,22.80
2022-08-17T03:33:00.087Z,22.80
2022-08-17T03:34:01.786Z,22.80
2022-08-17T03:35:03.723Z,22.80
2022-08-17T03:36:06.880Z,22.80
2022-08-17T03:37:08.919Z,22.80
2022-08-17T03:38:15.262Z,22.90
2022-08-17T03:39:17.889Z,22.80
2022-08-17T03:40:37.005Z,22.80
2022-08-17T03:41:42.032Z,22.70
2022-08-17T03:42:44.156Z,22.70
2022-08-17T03:43:46.899Z,22.70
2022-08-17T03:44:52.887Z,22.70
2022-08-17T03:46:27.823Z,22.70
2022-08-17T03:47:55.251Z,22.60
2022-08-17T03:49:15.865Z,22.60
2022-08-17T03:50:37.343Z,22.60
2022-08-17T03:51:57.818Z,22.50
2022-08-17T03:53:18.703Z,22.50
2022-08-17T03:54:39.210Z,22.60
2022-08-17T03:55:59.690Z,22.50
2022-08-17T03:57:03.084Z,22.50
2022-08-17T03:58:04.742Z,22.50
2022-08-17T03:59:06.406Z,22.50
2022-08-17T04:00:22.691Z,22.50
2022-08-17T04:01:24.870Z,22.50
2022-08-17T04:02:31.620Z,22.50
2022-08-17T04:03:35.993Z,22.50
2022-08-17T04:04:39.307Z,22.60
2022-08-17T04:05:41.406Z,22.50
2022-08-17T04:06:43.356Z,22.50
2022-08-17T04:07:45.094Z,22.50
2022-08-17T04:08:46.849Z,22.50
2022-08-17T04:09:49.069Z,22.50
2022-08-17T04:10:50.814Z,22.50
2022-08-17T04:11:53.130Z,22.50
2022-08-17T04:12:55.937Z,22.50
2022-08-17T04:13:57.704Z,22.50
2022-08-17T04:14:59.820Z,22.40
2022-08-17T04:16:01.900Z,22.40
2022-08-17T04:17:06.386Z,22.40
2022-08-17T04:18:08.030Z,22.40
2022-08-17T04:19:12.878Z,22.40
2022-08-17T04:20:17.233Z,22.40
2022-08-17T04:21:20.140Z,22.60
2022-08-17T04:22:32.258Z,22.40
2022-08-17T04:23:36.667Z,22.40
2022-08-17T04:24:38.351Z,22.40
2022-08-17T04:25:43.826Z,22.40
2022-08-17T04:26:50.595Z,22.40
2022-08-17T04:27:56.955Z,22.40
2022-08-17T04:28:59.127Z,22.40
2022-08-17T04:30:01.614Z,22.40
2022-08-17T04:31:03.290Z,22.40
2022-08-17T04:32:05.432Z,22.40
2022-08-17T04:33:10.563Z,22.30
2022-08-17T04:34:12.738Z,22.30
2022-08-17T04:35:19.443Z,22.30
2022-08-17T04:36:22.092Z,22.40
2022-08-17T04:37:23.790Z,22.40
2022-08-17T04:38:32.952Z,22.30
2022-08-17T04:39:34.871Z,22.40
2022-08-17T04:40:56.125Z,22.40
2022-08-17T04:42:06.848Z,22.40
2022-08-17T04:43:11.875Z,22.40
2022-08-17T04:44:13.642Z,22.40
2022-08-17T04:45:39.693Z,22.40
2022-08-17T04:46:41.344Z,22.40
2022-08-17T04:47:43.003Z,22.40
2022-08-17T04:48:48.365Z,22.40
2022-08-17T04:49:50.287Z,22.40
2022-08-17T04:50:52.074Z,22.40
2022-08-17T04:51:55.693Z,22.40
2022-08-17T04:52:58.436Z,22.40
2022-08-17T04:54:04.468Z,22.40
2022-08-17T04:55:06.647Z,22.40
2022-08-17T04:56:11.854Z,22.40
2022-08-17T04:57:18.784Z,22.40
2022-08-17T04:58:21.585Z,22.50
2022-08-17T04:59:23.356Z,22.40
2022-08-17T05:00:25.991Z,22.40
2022-08-17T05:01:30.070Z,22.50
2022-08-17T05:02:32.667Z,22.50
2022-08-17T05:03:35.415Z,22.50
2022-08-17T05:04:37.232Z,22.50
2022-08-17T05:05:43.261Z,22.40
2022-08-17T05:06:46.819Z,22.40
2022-08-17T05:07:50.943Z,22.30
2022-08-17T05:08:53.238Z,22.30
2022-08-17T05:09:54.878Z,22.30
2022-08-17T05:10:57.067Z,22.30
2022-08-17T05:12:02.643Z,22.30
2022-08-17T05:13:05.714Z,22.30
2022-08-17T05:14:07.448Z,22.40
2022-08-17T05:15:16.129Z,22.40
2022-08-17T05:16:19.524Z,22.40
2022-08-17T05:17:21.210Z,22.50
2022-08-17T05:18:24.665Z,22.50
2022-08-17T05:19:26.485Z,22.50
2022-08-17T05:20:28.846Z,22.50
2022-08-17T05:21:30.913Z,22.50
2022-08-17T05:22:32.759Z,22.50
2022-08-17T05:23:42.616Z,22.60
2022-08-17T05:24:53.922Z,22.60
2022-08-17T05:25:58.166Z,22.60
2022-08-17T05:27:06.062Z,22.70
2022-08-17T05:28:09.532Z,22.70
2022-08-17T05:29:11.346Z,22.70
2022-08-17T05:30:14.085Z,22.70
2022-08-17T05:31:16.522Z,22.80
2022-08-17T05:32:38.880Z,22.80
2022-08-17T05:33:46.243Z,22.80
2022-08-17T05:34:48.584Z,22.80
2022-08-17T05:35:54.459Z,22.80
2022-08-17T05:36:56.337Z,22.80
2022-08-17T05:37:58.270Z,22.70
2022-08-17T05:39:00.385Z,22.80
2022-08-17T05:40:02.169Z,22.80
2022-08-17T05:41:06.706Z,22.80
2022-08-17T05:42:09.396Z,22.90
2022-08-17T05:43:17.217Z,23.00
2022-08-17T05:44:18.934Z,22.90
2022-08-17T05:45:54.504Z,23.00
2022-08-17T05:46:48.932Z,23.10
2022-08-17T05:47:51.437Z,23.20
2022-08-17T05:48:59.068Z,23.30
2022-08-17T05:50:02.023Z,23.40
2022-08-17T05:51:22.809Z,23.40
2022-08-17T05:52:30.069Z,23.40
2022-08-17T05:54:09.600Z,23.50
2022-08-17T05:55:25.838Z,23.60
2022-08-17T05:56:33.197Z,23.60
2022-08-17T05:57:39.874Z,23.70
2022-08-17T05:59:06.768Z,23.70
2022-08-17T06:00:30.107Z,23.70
2022-08-17T06:01:52.645Z,23.80
2022-08-17T06:03:07.260Z,23.80
2022-08-17T06:04:36.746Z,23.90
2022-08-17T06:06:05.844Z,24.00
2022-08-17T06:07:21.434Z,24.00
2022-08-17T06:08:35.372Z,23.90
2022-08-17T06:10:12.439Z,23.90
2022-08-17T06:11:20.461Z,24.00
2022-08-17T06:12:47.338Z,24.00
2022-08-17T06:14:09.855Z,24.00
2022-08-17T06:15:26.341Z,23.90
2022-08-17T06:16:35.431Z,23.90
2022-08-17T06:17:37.962Z,23.80
2022-08-17T06:18:46.381Z,23.80
2022-08-17T06:19:54.723Z,23.70
2022-08-17T06:21:07.157Z,23.70
2022-08-17T06:22:12.892Z,23.60
2022-08-17T06:23:22.738Z,23.60
2022-08-17T06:24:40.398Z,23.60
2022-08-17T06:25:49.790Z,23.70
2022-08-17T06:26:53.733Z,23.70
2022-08-17T06:28:08.442Z,23.80
2022-08-17T06:30:09.124Z,23.80
2022-08-17T06:31:20.089Z,23.90
2022-08-17T06:32:22.891Z,23.90
2022-08-17T06:33:37.662Z,23.90
2022-08-17T06:34:42.824Z,23.90
2022-08-17T06:36:15.783Z,24.00
2022-08-17T06:37:51.692Z,24.00
2022-08-17T06:39:31.581Z,24.00
2022-08-17T06:41:11.380Z,24.00
2022-08-17T06:42:54.996Z,24.00
2022-08-17T06:43:51.250Z,23.90
2022-08-17T06:45:03.225Z,23.90
2022-08-17T06:46:31.228Z,23.80
2022-08-17T06:48:06.165Z,23.80
2022-08-17T06:49:28.581Z,23.80
2022-08-17T06:50:42.100Z,23.80
2022-08-17T06:51:51.894Z,23.90
2022-08-17T06:53:17.646Z,24.00
2022-08-17T06:54:36.732Z,24.00
2022-08-17T06:56:01.888Z,24.10
2022-08-17T06:57:23.228Z,24.20
2022-08-17T06:58:29.563Z,24.20
2022-08-17T06:59:55.924Z,24.30
2022-08-17T07:01:10.788Z,24.50
2022-08-17T07:02:20.105Z,24.40
2022-08-17T07:03:59.019Z,24.40
2022-08-17T07:05:07.672Z,24.40
2022-08-17T07:06:21.877Z,24.50
2022-08-17T07:07:42.179Z,24.50
2022-08-17T07:09:02.350Z,24.70
2022-08-17T07:10:04.337Z,24.60
2022-08-17T07:11:13.039Z,24.70
2022-08-17T07:12:18.501Z,24.70
2022-08-17T07:13:33.916Z,24.70
2022-08-17T07:14:59.366Z,24.80
2022-08-17T07:16:13.138Z,24.80
2022-08-17T07:17:18.284Z,24.90
2022-08-17T07:18:20.844Z,24.90
2022-08-17T07:19:31.775Z,25.00
2022-08-17T07:20:34.776Z,25.00
2022-08-17T07:22:03.580Z,25.10
2022-08-17T07:23:26.113Z,25.10
2022-08-17T07:24:30.900Z,25.20
2022-08-17T07:25:33.063Z,25.20
2022-08-17T07:26:34.801Z,25.30
2022-08-17T07:27:51.110Z,25.30
2022-08-17T07:28:56.231Z,25.30
2022-08-17T07:30:03.770Z,25.40
2022-08-17T07:31:13.286Z,25.40
2022-08-17T07:32:18.978Z,25.40
2022-08-17T07:33:30.965Z,25.40
2022-08-17T07:35:11.123Z,25.50
2022-08-17T07:36:29.605Z,25.60
2022-08-17T07:37:34.242Z,25.60
2022-08-17T07:38:54.260Z,25.60
2022-08-17T07:40:15.261Z,25.70
2022-08-17T07:41:20.751Z,25.80
2022-08-17T07:42:22.593Z,25.90
2022-08-17T07:43:26.380Z,25.90
2022-08-17T07:44:31.448Z,26.00
2022-08-17T07:45:53.451Z,26.00
2022-08-17T07:47:14.654Z,26.00
2022-08-17T07:48:21.085Z,26.10
2022-08-17T07:49:31.691Z,26.20
2022-08-17T07:50:33.839Z,26.20
2022-08-17T07:51:37.861Z,26.20
2022-08-17T07:52:47.738Z,26.20
2022-08-17T07:54:09.086Z,26.30
2022-08-17T07:55:34.840Z,26.30
2022-08-17T07:56:45.768Z,26.30
2022-08-17T07:57:57.408Z,26.40
2022-08-17T07:59:27.267Z,26.30
2022-08-17T08:00:37.133Z,26.40
2022-08-17T08:01:41.784Z,26.40
2022-08-17T08:02:47.275Z,26.40
2022-08-17T08:03:51.048Z,26.40
2022-08-17T08:05:06.650Z,26.40
2022-08-17T08:06:23.092Z,26.40
2022-08-17T08:07:30.359Z,26.40
2022-08-17T08:08:40.694Z,26.40
2022-08-17T08:10:00.808Z,26.40
2022-08-17T08:11:11.813Z,26.40
2022-08-17T08:12:38.169Z,26.40
2022-08-17T08:13:43.860Z,26.50
2022-08-17T08:14:56.432Z,26.50
2022-08-17T08:16:16.768Z,26.50
2022-08-17T08:17:34.217Z,26.60
2022-08-17T08:18:55.465Z,26.60
2022-08-17T08:20:00.497Z,26.60
2022-08-17T08:21:30.940Z,26.60
2022-08-17T08:22:43.382Z,26.60
2022-08-17T08:23:50.437Z,26.60
2022-08-17T08:25:21.504Z,26.60
2022-08-17T08:26:44.395Z,26.60
2022-08-17T08:27:57.036Z,26.60
2022-08-17T08:29:47.579Z,26.60
2022-08-17T08:30:58.462Z,26.60
2022-08-17T08:32:39.502Z,26.60
2022-08-17T08:34:09.310Z,26.60
2022-08-17T08:35:55.090Z,26.70
2022-08-17T08:37:17.653Z,26.60
2022-08-17T08:38:37.767Z,26.60
2022-08-17T08:39:52.029Z,26.60
2022-08-17T08:41:12.248Z,26.60
2022-08-17T08:42:55.231Z,26.70
2022-08-17T08:44:11.999Z,26.70
2022-08-17T11:57:29.414Z,23.80
2022-08-17T11:58:33.647Z,23.80
2022-08-17T11:59:45.795Z,23.80
2022-08-17T12:00:50.301Z,23.90
2022-08-17T12:01:57.074Z,24.00
2022-08-17T12:03:28.057Z,24.10
2022-08-17T12:04:33.011Z,24.20
2022-08-17T12:05:35.296Z,24.30
2022-08-17T12:07:08.359Z,24.50
2022-08-17T12:08:18.487Z,24.60
2022-08-17T12:09:27.955Z,24.70
2022-08-17T12:10:32.569Z,24.80
2022-08-17T12:12:15.911Z,24.90
2022-08-17T12:13:30.488Z,24.90
2022-08-17T12:15:08.939Z,25.00
2022-08-17T12:16:10.984Z,25.10
2022-08-17T12:17:39.756Z,25.30
2022-08-17T12:18:42.209Z,25.30
2022-08-17T12:19:43.921Z,25.40
2022-08-17T12:20:56.543Z,25.50
2022-08-17T12:22:25.529Z,25.60
2022-08-17T12:23:45.348Z,25.70
2022-08-17T12:24:54.557Z,25.80
2022-08-17T12:26:11.694Z,25.90
2022-08-17T12:27:46.098Z,26.00
2022-08-17T12:28:50.653Z,26.10
2022-08-17T12:29:58.168Z,26.20
2022-08-17T12:31:15.388Z,26.20
2022-08-17T12:32:22.272Z,26.30
2022-08-17T12:33:28.408Z,26.40
2022-08-17T12:34:39.241Z,26.40
2022-08-17T12:35:41.637Z,26.50
2022-08-17T12:36:53.634Z,26.50
2022-08-17T12:37:59.865Z,26.60
2022-08-17T12:39:13.786Z,26.60
2022-08-17T12:40:22.647Z,26.70
2022-08-17T12:41:43.931Z,26.80
2022-08-17T12:42:59.958Z,26.80
2022-08-17T12:44:13.435Z,26.90
2022-08-17T12:45:46.263Z,26.90
2022-08-17T12:46:48.284Z,27.00
2022-08-17T12:48:07.612Z,27.00
2022-08-17T12:49:22.612Z,27.00
2022-08-17T12:50:29.158Z,27.00
2022-08-17T12:51:31.717Z,27.00
2022-08-17T12:52:37.370Z,27.00
2022-08-17T12:53:53.832Z,27.00
2022-08-17T12:55:02.356Z,27.00
2022-08-17T12:56:11.868Z,27.00
2022-08-17T12:57:22.888Z,27.00
2022-08-17T12:58:30.434Z,27.00
2022-08-17T12:59:33.195Z,27.00
2022-08-17T13:00:38.119Z,27.00
2022-08-17T13:01:42.096Z,27.10
2022-08-17T13:02:48.662Z,27.10
2022-08-17T13:03:55.351Z,27.10
2022-08-17T13:05:00.313Z,27.20
2022-08-17T13:06:06.438Z,27.20
2022-08-17T13:07:08.241Z,27.30
2022-08-17T13:08:17.678Z,27.30
2022-08-17T13:09:36.060Z,27.40
2022-08-17T13:10:43.034Z,27.50
2022-08-17T13:11:53.474Z,27.70
2022-08-17T13:12:55.890Z,27.70
2022-08-17T13:14:09.205Z,27.90
2022-08-17T13:15:21.117Z,28.00
2022-08-17T13:16:27.691Z,28.10
2022-08-17T13:17:35.925Z,28.20
2022-08-17T13:18:44.914Z,28.40
2022-08-17T13:19:51.070Z,28.50
2022-08-17T13:20:54.237Z,28.70
2022-08-17T13:21:59.393Z,28.80
2022-08-17T13:23:11.398Z,28.90
2022-08-17T13:24:38.132Z,29.10
2022-08-17T13:25:40.447Z,29.10
2022-08-17T13:26:42.056Z,29.10
2022-08-17T13:27:44.999Z,29.10
2022-08-17T13:28:49.580Z,29.10
2022-08-17T13:29:55.329Z,29.30
2022-08-17T13:31:27.820Z,29.30
2022-08-17T13:32:35.887Z,29.40
2022-08-17T13:33:44.815Z,29.50
2022-08-17T13:35:12.012Z,29.50
2022-08-17T13:36:10.162Z,29.60
2022-08-17T13:37:26.966Z,29.70
2022-08-17T13:38:45.593Z,29.90
2022-08-17T13:39:47.272Z,30.10
2022-08-17T13:40:53.099Z,30.20
2022-08-17T13:41:56.064Z,30.40
2022-08-17T13:42:58.486Z,30.50
2022-08-17T13:44:00.985Z,30.70
2022-08-17T13:45:02.768Z,30.70
2022-08-17T13:46:31.090Z,30.80
2022-08-17T13:47:33.254Z,30.80
2022-08-17T13:48:35.158Z,30.90
2022-08-17T13:49:48.417Z,31.00
2022-08-17T13:50:56.873Z,31.00
2022-08-17T13:51:58.954Z,31.10
2022-08-17T13:53:14.942Z,31.10
2022-08-17T13:54:34.990Z,31.20
2022-08-17T13:55:36.740Z,31.30
2022-08-17T13:57:14.676Z,31.30
2022-08-17T13:58:25.852Z,31.40
2022-08-17T13:59:53.346Z,31.50
2022-08-17T14:00:58.103Z,31.60
2022-08-17T14:02:00.115Z,31.70
2022-08-17T14:03:04.024Z,31.80
2022-08-17T14:04:18.003Z,31.90
2022-08-17T14:05:20.894Z,32.00
2022-08-17T14:06:51.518Z,32.10
2022-08-17T14:08:01.233Z,32.10
2022-08-17T14:09:04.255Z,32.20
2022-08-17T14:10:13.601Z,32.20
2022-08-17T14:11:17.289Z,32.30
2022-08-17T14:12:24.754Z,32.20
2022-08-17T14:13:26.585Z,32.20
2022-08-17T14:14:29.284Z,32.20
2022-08-17T14:15:53.976Z,32.20
2022-08-17T14:16:54.300Z,32.30
2022-08-17T14:17:56.069Z,32.30
2022-08-17T14:18:57.778Z,32.30
2022-08-17T14:19:59.822Z,32.30
2022-08-17T14:21:01.498Z,32.30
2022-08-17T14:22:03.978Z,32.40
2022-08-17T14:23:06.067Z,32.40
2022-08-17T14:24:10.961Z,32.40
2022-08-17T14:25:15.505Z,32.50
2022-08-17T14:26:17.754Z,32.50
2022-08-17T14:27:20.537Z,32.50
2022-08-17T14:28:22.210Z,32.40
2022-08-17T14:29:26.018Z,32.40
2022-08-17T14:30:29.703Z,32.30
2022-08-17T14:31:36.828Z,32.30
2022-08-17T14:32:41.289Z,32.30
2022-08-17T14:33:42.994Z,32.20
2022-08-17T14:34:46.064Z,32.20
2022-08-17T14:35:48.147Z,32.20
2022-08-17T14:36:49.944Z,32.10
2022-08-17T14:37:52.734Z,32.00
2022-08-17T14:38:54.685Z,31.90
2022-08-17T14:40:01.520Z,31.80
2022-08-17T14:41:04.645Z,31.70
2022-08-17T14:42:06.495Z,31.60
2022-08-17T14:43:08.768Z,31.60
2022-08-17T14:44:12.435Z,31.60
2022-08-17T14:45:31.695Z,31.60
2022-08-17T14:46:34.813Z,31.60
2022-08-17T14:47:38.746Z,31.60
2022-08-17T14:48:42.862Z,31.50
2022-08-17T14:49:48.401Z,31.50
2022-08-17T14:50:50.108Z,31.50
2022-08-17T14:51:52.004Z,31.50
2022-08-17T14:52:56.087Z,31.50
2022-08-17T14:53:59.932Z,31.60
2022-08-17T14:55:02.293Z,31.50
2022-08-17T14:56:04.608Z,31.50
2022-08-17T14:57:32.883Z,31.50
2022-08-17T14:58:29.642Z,31.50
2022-08-17T14:59:32.077Z,31.50
2022-08-17T15:00:34.085Z,31.50
2022-08-17T15:01:36.799Z,31.60
2022-08-17T15:04:11.606Z,31.50
2022-08-17T15:05:16.501Z,31.50
2022-08-17T15:06:18.133Z,31.40
2022-08-17T15:07:20.477Z,31.50
2022-08-17T15:08:28.268Z,31.30
2022-08-17T15:09:30.812Z,31.30
2022-08-17T15:10:39.305Z,31.20
2022-08-17T15:11:40.998Z,31.20
2022-08-17T15:12:42.898Z,31.20
2022-08-17T15:13:52.058Z,31.10
2022-08-17T15:14:54.763Z,31.10
2022-08-17T15:15:59.184Z,31.00
2022-08-17T15:17:01.130Z,31.00
2022-08-17T15:18:03.361Z,30.90
2022-08-17T15:19:07.358Z,30.90
2022-08-17T15:20:14.585Z,30.90
2022-08-17T15:21:19.246Z,30.80
2022-08-17T15:22:25.259Z,30.80
2022-08-17T15:23:27.196Z,30.80
2022-08-17T15:24:28.906Z,30.80
2022-08-17T15:25:32.616Z,30.80
2022-08-17T15:26:36.763Z,30.80
2022-08-17T15:27:38.649Z,30.80
2022-08-17T15:28:40.310Z,30.80
2022-08-17T15:29:42.008Z,30.80
2022-08-17T15:30:44.905Z,30.80
2022-08-17T15:31:46.570Z,30.90
2022-08-17T15:32:51.148Z,30.90
2022-08-17T15:33:56.357Z,30.90
2022-08-17T15:35:00.271Z,30.90
2022-08-17T15:36:06.375Z,31.00
2022-08-17T15:37:08.059Z,31.00
2022-08-17T15:38:12.954Z,31.10
2022-08-17T15:39:14.610Z,31.10
2022-08-17T15:40:21.335Z,31.20
2022-08-17T15:41:23.040Z,31.30
2022-08-17T15:42:25.269Z,31.30
2022-08-17T15:43:32.575Z,31.40
2022-08-17T15:44:39.670Z,31.40
2022-08-17T15:45:41.852Z,31.70
2022-08-17T15:46:43.837Z,31.80
2022-08-17T15:47:46.598Z,31.90
2022-08-17T15:48:51.136Z,32.00
2022-08-17T15:49:57.968Z,32.20
2022-08-17T15:51:01.633Z,32.30
2022-08-17T15:52:19.343Z,32.50
2022-08-17T15:53:20.997Z,32.70
2022-08-17T15:54:23.525Z,32.80
2022-08-17T15:55:27.823Z,32.80
2022-08-17T15:56:31.268Z,32.80
2022-08-17T15:57:33.803Z,32.80
2022-08-17T15:58:37.852Z,32.70
2022-08-17T15:59:40.323Z,32.60
2022-08-17T16:00:49.389Z,32.50
2022-08-17T16:03:13.737Z,32.40
2022-08-17T16:03:58.318Z,32.20
2022-08-17T16:04:44.420Z,32.10
2022-08-17T16:05:50.189Z,32.00
2022-08-17T16:06:52.286Z,31.90
2022-08-17T16:07:55.386Z,31.80
2022-08-17T16:08:57.704Z,31.70
2022-08-17T16:09:59.437Z,31.60
2022-08-17T16:11:02.817Z,31.50
2022-08-17T16:12:13.204Z,31.40
2022-08-17T16:13:17.410Z,31.40
2022-08-17T16:14:19.682Z,31.30
2022-08-17T16:15:21.467Z,31.20
2022-08-17T16:16:23.735Z,31.10
2022-08-17T16:17:39.027Z,31.10
2022-08-17T16:18:44.993Z,31.10
2022-08-17T16:19:46.880Z,31.00
2022-08-17T16:20:48.805Z,30.90
2022-08-17T16:21:50.535Z,30.80
2022-08-17T16:22:52.566Z,30.80
2022-08-17T16:24:01.201Z,30.70
2022-08-17T16:25:07.445Z,30.70
2022-08-17T16:26:09.089Z,30.70
2022-08-17T16:27:11.699Z,30.60
2022-08-17T16:28:16.397Z,30.60
2022-08-17T16:29:18.288Z,30.50
2022-08-17T16:30:22.752Z,30.50
2022-08-17T16:31:24.511Z,30.40
2022-08-17T16:32:31.956Z,30.40
2022-08-17T16:33:34.938Z,30.40
2022-08-17T16:34:36.645Z,30.30
2022-08-17T16:35:38.884Z,30.30
2022-08-17T16:36:41.560Z,30.30
2022-08-17T16:37:57.124Z,30.20
2022-08-17T16:39:01.357Z,30.20
2022-08-17T16:40:05.905Z,30.20
2022-08-17T16:41:07.871Z,30.20
2022-08-17T16:42:27.163Z,30.20
2022-08-17T16:43:29.987Z,30.20
2022-08-17T16:44:32.273Z,30.20
2022-08-17T16:45:36.486Z,30.10
2022-08-17T16:46:39.948Z,30.10
2022-08-17T16:47:49.934Z,30.10
2022-08-17T16:48:52.020Z,30.10
2022-08-17T16:49:53.820Z,30.10
2022-08-17T16:51:03.503Z,30.00
2022-08-17T16:52:10.330Z,30.00
2022-08-17T16:53:18.909Z,30.00
2022-08-17T16:54:22.083Z,29.90
2022-08-17T16:55:23.960Z,29.90
2022-08-17T16:56:25.778Z,29.90
2022-08-17T16:57:29.742Z,29.90
2022-08-17T16:58:31.386Z,29.80
2022-08-17T16:59:40.708Z,29.80
2022-08-17T17:00:45.252Z,29.80
2022-08-17T17:01:47.765Z,29.80
2022-08-17T17:02:49.768Z,29.70
2022-08-17T17:03:58.163Z,29.70
2022-08-17T17:05:09.187Z,29.70
2022-08-17T17:06:39.685Z,29.60
2022-08-17T17:08:00.774Z,29.60
2022-08-17T17:09:16.334Z,29.60
2022-08-17T17:10:22.505Z,29.60
2022-08-17T17:11:24.206Z,29.50
2022-08-17T17:13:00.837Z,29.50
2022-08-17T17:13:57.817Z,29.40
2022-08-17T17:15:01.644Z,29.40
2022-08-17T17:16:18.590Z,29.40
2022-08-17T17:17:46.554Z,29.30
2022-08-17T17:19:15.724Z,29.30
2022-08-17T17:20:28.924Z,29.20
2022-08-17T17:21:44.081Z,29.20
2022-08-17T17:23:00.777Z,29.10
2022-08-17T17:24:13.114Z,29.10
2022-08-17T17:25:36.557Z,29.10
2022-08-17T17:27:02.857Z,29.10
2022-08-17T17:28:26.178Z,29.00
2022-08-17T17:29:48.660Z,29.00
2022-08-17T17:31:24.840Z,29.00
2022-08-17T17:32:45.493Z,28.90
2022-08-17T17:33:52.838Z,28.90
2022-08-17T17:35:05.488Z,29.00
2022-08-17T17:36:22.388Z,28.90
2022-08-17T17:37:32.316Z,28.80
2022-08-17T17:38:52.148Z,28.80
2022-08-17T17:39:58.029Z,28.80
2022-08-17T17:41:14.113Z,28.80
2022-08-17T17:42:20.694Z,28.80
2022-08-17T17:43:38.808Z,28.80
2022-08-17T17:44:46.678Z,28.80
2022-08-17T17:45:51.088Z,28.80
2022-08-17T17:46:58.153Z,28.70
2022-08-17T17:47:59.839Z,28.70
2022-08-17T17:49:01.558Z,28.70
2022-08-17T17:50:05.874Z,28.70
2022-08-17T17:52:08.810Z,28.70
2022-08-17T17:53:02.893Z,28.70
2022-08-17T17:54:20.433Z,28.70
2022-08-17T17:55:41.127Z,28.70
2022-08-17T17:56:46.062Z,28.60
2022-08-17T17:58:06.441Z,28.60
2022-08-17T17:59:13.014Z,28.50
2022-08-17T18:00:23.537Z,28.50
2022-08-17T18:01:44.948Z,28.50